createdAt,value
2022-11-12T00:02:15.803Z,84.33
2022-11-12T00:05:02.526Z,84.44
2022-11-12T00:07:48.718Z,84.39
2022-11-12T00:10:34.723Z,84.30
2022-11-12T00:13:20.596Z,84.31
2022-11-12T00:16:07.817Z,84.39
2022-11-12T00:18:53.500Z,84.38
2022-11-12T00:21:39.621Z,84.26
2022-11-12T00:24:25.176Z,84.39
2022-11-12T00:27:11.736Z,84.49
2022-11-12T00:29:57.430Z,84.45
2022-11-12T00:32:43.082Z,84.54
2022-11-12T00:35:28.948Z,84.55
2022-11-12T00:38:14.887Z,84.51
2022-11-12T00:41:03.251Z,84.40
2022-11-12T00:43:48.704Z,84.30
2022-11-12T00:46:34.211Z,84.29
2022-11-12T00:49:20.141Z,84.25
2022-11-12T00:52:06.024Z,84.28
2022-11-12T00:54:51.929Z,84.34
2022-11-12T00:57:38.104Z,84.53
2022-11-12T01:00:24.131Z,84.45
2022-11-12T01:03:09.960Z,84.22
2022-11-12T01:05:55.730Z,84.38
2022-11-12T01:08:43.223Z,84.34
2022-11-12T01:11:31.136Z,84.22
2022-11-12T01:14:16.923Z,84.27
2022-11-12T01:17:03.018Z,84.34
2022-11-12T01:19:49.123Z,84.28
2022-11-12T01:22:34.999Z,84.27
2022-11-12T01:25:21.404Z,84.33
2022-11-12T01:28:07.197Z,84.46
2022-11-12T01:30:53.609Z,84.54
2022-11-12T01:33:39.688Z,84.64
2022-11-12T01:36:26.703Z,84.79
2022-11-12T01:39:12.326Z,84.75
2022-11-12T01:41:58.499Z,84.84
2022-11-12T01:44:48.716Z,84.67
2022-11-12T01:47:37.336Z,84.67
2022-11-12T01:50:28.443Z,84.66
2022-11-12T01:53:16.138Z,84.58
2022-11-12T01:56:01.064Z,84.51
2022-11-12T01:58:50.309Z,84.61
2022-11-12T02:01:37.850Z,84.53
2022-11-12T02:04:24.335Z,84.48
2022-11-12T02:07:11.195Z,84.48
2022-11-12T02:09:57.554Z,84.42
2022-11-12T02:13:01.806Z,84.38
2022-11-12T02:15:48.021Z,84.31
2022-11-12T02:18:33.896Z,84.23
2022-11-12T02:21:22.959Z,84.40
2022-11-12T02:24:22.883Z,84.34
2022-11-12T02:27:09.136Z,84.13
2022-11-12T02:29:55.076Z,84.26
2022-11-12T02:32:40.703Z,84.21
2022-11-12T02:35:26.356Z,84.22
2022-11-12T02:38:12.806Z,84.21
2022-11-12T02:40:58.697Z,84.28
2022-11-12T02:43:44.954Z,84.35
2022-11-12T02:46:30.519Z,84.25
2022-11-12T02:49:16.353Z,84.22
2022-11-12T02:52:02.141Z,84.24
2022-11-12T02:54:48.031Z,84.35
2022-11-12T02:57:33.716Z,84.32
2022-11-12T03:00:19.929Z,84.20
2022-11-12T03:03:05.853Z,83.97
2022-11-12T03:05:58.101Z,83.98
2022-11-12T03:08:43.969Z,83.95
2022-11-12T03:11:29.780Z,83.92
2022-11-12T03:14:15.854Z,83.71
2022-11-12T03:17:01.233Z,83.78
2022-11-12T03:19:46.807Z,83.58
2022-11-12T03:22:32.707Z,83.57
2022-11-12T03:25:18.701Z,83.40
2022-11-12T03:28:06.157Z,83.09
2022-11-12T03:30:52.381Z,83.16
2022-11-12T03:33:38.282Z,83.23
2022-11-12T03:36:24.158Z,83.38
2022-11-12T03:39:10.092Z,83.13
2022-11-12T03:41:55.787Z,83.20
2022-11-12T03:44:41.249Z,83.19
2022-11-12T03:47:26.755Z,83.24
2022-11-12T03:50:13.634Z,83.21
2022-11-12T03:53:01.108Z,83.20
2022-11-12T03:55:46.837Z,83.20
2022-11-12T03:58:32.732Z,82.93
2022-11-12T04:01:18.757Z,82.77
2022-11-12T04:04:05.268Z,82.90
2022-11-12T04:07:08.567Z,82.88
2022-11-12T04:09:54.697Z,82.61
2022-11-12T04:13:03.319Z,82.71
2022-11-12T04:16:08.256Z,82.83
2022-11-12T04:19:14.111Z,82.80
2022-11-12T04:22:03.702Z,82.92
2022-11-12T04:25:06.725Z,83.12
2022-11-12T04:27:52.485Z,83.17
2022-11-12T04:30:38.217Z,83.15
2022-11-12T04:33:24.165Z,83.07
2022-11-12T04:36:10.167Z,82.97
2022-11-12T04:38:55.679Z,82.91
2022-11-12T04:41:58.954Z,82.91
2022-11-12T04:45:01.515Z,82.87
2022-11-12T04:47:47.693Z,82.83
2022-11-12T04:50:34.003Z,83.12
2022-11-12T04:53:20.084Z,83.11
2022-11-12T04:56:06.340Z,82.82
2022-11-12T04:58:51.670Z,82.57
2022-11-12T05:01:37.451Z,82.44
2022-11-12T05:04:23.272Z,82.39
2022-11-12T05:07:08.790Z,82.49
2022-11-12T05:09:54.434Z,82.28
2022-11-12T05:12:40.427Z,82.13
2022-11-12T05:15:26.176Z,82.03
2022-11-12T05:18:11.885Z,82.10
2022-11-12T05:20:57.538Z,82.05
2022-11-12T05:23:43.313Z,82.02
2022-11-12T05:26:29.328Z,82.04
2022-11-12T05:29:14.631Z,82.14
2022-11-12T05:32:00.211Z,81.97
2022-11-12T05:34:45.909Z,82.22
2022-11-12T05:37:31.552Z,82.32
2022-11-12T05:40:17.899Z,82.43
2022-11-12T05:43:03.987Z,82.28
2022-11-12T05:45:49.586Z,82.31
2022-11-12T05:48:35.189Z,81.97
2022-11-12T05:51:20.735Z,82.17
2022-11-12T05:54:07.178Z,82.13
2022-11-12T05:56:54.456Z,82.26
2022-11-12T05:59:38.443Z,82.46
2022-11-12T06:02:24.618Z,82.37
2022-11-12T06:05:11.235Z,82.43
2022-11-12T06:07:57.011Z,82.46
2022-11-12T06:10:42.345Z,82.47
2022-11-12T06:13:28.674Z,82.66
2022-11-12T06:16:14.456Z,82.69
2022-11-12T06:19:00.429Z,82.58
2022-11-12T06:21:45.873Z,82.71
2022-11-12T06:24:35.367Z,82.76
2022-11-12T06:27:21.096Z,82.74
2022-11-12T06:30:08.940Z,82.61
2022-11-12T06:32:54.575Z,82.47
2022-11-12T06:35:42.968Z,82.23
2022-11-12T06:38:29.021Z,81.98
2022-11-12T06:41:15.794Z,81.83
2022-11-12T06:44:01.256Z,81.93
2022-11-12T06:46:46.776Z,81.88
2022-11-12T06:49:33.079Z,82.10
2022-11-12T06:52:19.350Z,82.07
2022-11-12T06:55:05.180Z,82.15
2022-11-12T06:57:54.433Z,81.96
2022-11-12T07:00:40.335Z,82.11
2022-11-12T07:03:25.904Z,82.39
2022-11-12T07:06:14.214Z,82.39
2022-11-12T07:08:59.936Z,82.49
2022-11-12T07:11:46.572Z,82.55
2022-11-12T07:14:32.047Z,82.44
2022-11-12T07:17:17.711Z,82.75
2022-11-12T07:20:04.310Z,82.92
2022-11-12T07:22:50.308Z,82.98
2022-11-12T07:25:35.911Z,82.90
2022-11-12T07:28:21.437Z,83.05
2022-11-12T07:31:09.615Z,83.23
2022-11-12T07:33:55.811Z,83.20
2022-11-12T07:36:42.008Z,83.15
2022-11-12T07:39:27.806Z,83.31
2022-11-12T07:42:14.199Z,83.47
2022-11-12T07:44:59.973Z,83.45
2022-11-12T07:47:46.181Z,83.47
2022-11-12T07:50:32.353Z,83.54
2022-11-12T07:53:18.062Z,83.59
2022-11-12T07:56:05.673Z,83.82
2022-11-12T07:58:50.612Z,83.73
2022-11-12T08:01:38.032Z,83.81
2022-11-12T08:04:24.411Z,83.89
2022-11-12T08:07:11.021Z,83.98
2022-11-12T08:09:56.813Z,84.00
2022-11-12T08:12:42.978Z,84.06
2022-11-12T08:15:29.488Z,83.83
2022-11-12T08:18:15.544Z,83.91
2022-11-12T08:21:05.040Z,83.95
2022-11-12T08:23:51.018Z,83.72
2022-11-12T08:26:36.744Z,83.85
2022-11-12T08:29:23.435Z,83.88
2022-11-12T08:32:10.121Z,83.86
2022-11-12T08:34:56.589Z,83.69
2022-11-12T08:37:42.390Z,83.78
2022-11-12T08:40:28.962Z,83.41
2022-11-12T08:43:15.034Z,83.68
2022-11-12T08:46:03.985Z,83.88
2022-11-12T08:48:49.883Z,84.02
2022-11-12T08:51:35.766Z,83.90
2022-11-12T08:54:21.661Z,83.76
2022-11-12T08:57:07.840Z,83.62
2022-11-12T08:59:53.870Z,83.64
2022-11-12T09:02:40.064Z,83.32
2022-11-12T09:05:25.624Z,83.36
2022-11-12T09:08:13.165Z,83.44
2022-11-12T09:11:00.795Z,83.43
2022-11-12T09:13:46.918Z,83.43
2022-11-12T09:16:32.783Z,83.11
2022-11-12T09:19:20.034Z,82.92
2022-11-12T09:22:06.238Z,82.85
2022-11-12T09:24:52.037Z,82.93
2022-11-12T09:27:37.977Z,82.83
2022-11-12T09:30:24.127Z,82.56
2022-11-12T09:33:09.983Z,82.62
2022-11-12T09:35:56.481Z,82.58
2022-11-12T09:38:42.117Z,82.34
2022-11-12T09:41:33.626Z,82.27
2022-11-12T09:44:22.184Z,82.19
2022-11-12T09:47:13.821Z,82.25
2022-11-12T09:50:12.177Z,82.10
2022-11-12T09:53:06.339Z,82.00
2022-11-12T09:55:52.562Z,81.88
2022-11-12T09:58:38.586Z,82.03
2022-11-12T10:01:38.144Z,82.07
2022-11-12T10:04:47.704Z,81.90
2022-11-12T10:07:57.115Z,81.49
2022-11-12T10:10:48.367Z,81.36
2022-11-12T10:13:47.727Z,81.38
2022-11-12T10:16:52.448Z,81.63
2022-11-12T10:20:00.249Z,81.79
2022-11-12T10:23:03.759Z,81.86
2022-11-12T10:25:51.886Z,81.73
2022-11-12T10:28:43.687Z,81.82
2022-11-12T10:31:29.302Z,81.78
2022-11-12T10:34:22.452Z,81.44
2022-11-12T10:37:13.992Z,81.35
2022-11-12T10:40:00.012Z,81.23
2022-11-12T10:43:00.011Z,81.06
2022-11-12T10:45:46.556Z,81.07
2022-11-12T10:48:34.731Z,80.94
2022-11-12T10:51:28.721Z,80.89
2022-11-12T10:54:31.930Z,80.86
2022-11-12T10:57:26.415Z,80.92
2022-11-12T11:00:19.499Z,80.76
2022-11-12T11:03:07.519Z,80.85
2022-11-12T11:05:55.586Z,80.85
2022-11-12T11:08:46.766Z,80.81
2022-11-12T11:11:33.260Z,80.76
2022-11-12T11:14:34.140Z,80.47
2022-11-12T11:17:21.180Z,80.60
2022-11-12T11:20:07.764Z,80.58
2022-11-12T11:22:57.617Z,80.62
2022-11-12T11:25:47.710Z,80.60
2022-11-12T11:28:40.245Z,80.55
2022-11-12T11:31:37.963Z,80.42
2022-11-12T11:34:34.636Z,80.43
2022-11-12T11:37:29.251Z,80.43
2022-11-12T11:40:21.881Z,80.28
2022-11-12T11:43:31.362Z,80.44
2022-11-12T11:46:31.042Z,80.15
2022-11-12T11:52:51.720Z,79.94
2022-11-12T11:55:47.317Z,79.74
2022-11-12T11:58:49.190Z,79.65
2022-11-12T12:01:48.598Z,79.59
2022-11-12T12:04:49.525Z,79.69
2022-11-12T12:07:45.020Z,79.63
2022-11-12T12:11:06.299Z,79.63
2022-11-12T12:14:01.825Z,79.63
2022-11-12T12:16:57.868Z,79.29
2022-11-12T12:19:58.253Z,79.47
2022-11-12T12:22:50.540Z,79.65
2022-11-12T12:25:40.210Z,79.69
2022-11-12T12:28:35.882Z,79.71
2022-11-12T12:31:28.536Z,79.81
2022-11-12T12:34:24.659Z,79.75
2022-11-12T12:37:23.259Z,79.78
2022-11-12T12:40:18.760Z,79.52
2022-11-12T12:43:11.733Z,79.31
2022-11-12T12:46:00.062Z,79.48
2022-11-12T12:48:48.106Z,79.38
2022-11-12T12:51:36.045Z,79.36
2022-11-12T12:55:00.943Z,79.31
2022-11-12T12:57:47.167Z,79.34
2022-11-12T13:00:36.550Z,79.38
2022-11-12T13:03:52.960Z,79.19
2022-11-12T13:06:55.621Z,79.34
2022-11-12T13:09:41.903Z,79.36
2022-11-12T13:13:07.350Z,79.37
2022-11-12T13:15:55.664Z,79.44
2022-11-12T13:19:03.946Z,79.75
2022-11-12T13:22:09.369Z,79.60
2022-11-12T13:25:26.063Z,79.81
2022-11-12T13:28:14.405Z,79.58
2022-11-12T13:31:03.461Z,79.66
2022-11-12T13:33:49.640Z,79.48
2022-11-12T13:36:35.491Z,79.61
2022-11-12T13:39:23.450Z,79.68
2022-11-12T13:42:35.272Z,79.70
2022-11-12T13:45:23.722Z,79.59
2022-11-12T13:48:15.000Z,79.68
2022-11-12T13:51:06.265Z,79.82
2022-11-12T13:53:52.090Z,79.87
2022-11-12T13:56:39.247Z,79.76
2022-11-12T13:59:26.873Z,79.95
2022-11-12T14:02:23.375Z,79.96
2022-11-12T14:05:17.158Z,79.97
2022-11-12T14:08:24.138Z,80.10
2022-11-12T14:11:39.776Z,80.12
2022-11-12T14:14:38.610Z,80.09
2022-11-12T14:17:32.753Z,80.17
2022-11-12T14:20:36.353Z,80.21
2022-11-12T14:23:25.350Z,80.49
2022-11-12T14:26:14.751Z,80.43
2022-11-12T14:29:01.218Z,80.60
2022-11-12T14:31:47.891Z,80.75
2022-11-12T14:34:34.970Z,80.90
2022-11-12T14:37:41.714Z,81.10
2022-11-12T14:40:28.697Z,81.12
2022-11-12T14:43:27.936Z,81.08
2022-11-12T14:46:26.747Z,80.82
2022-11-12T14:49:18.253Z,80.91
2022-11-12T14:52:10.678Z,80.93
2022-11-12T14:54:59.044Z,80.82
2022-11-12T14:57:45.214Z,80.96
2022-11-12T15:00:44.323Z,80.89
2022-11-12T15:03:35.862Z,80.73
2022-11-12T15:06:29.626Z,80.73
2022-11-12T15:09:21.970Z,80.97
2022-11-12T15:12:11.371Z,81.00
2022-11-12T15:15:08.741Z,81.04
2022-11-12T15:18:02.469Z,81.01
2022-11-12T15:21:03.536Z,81.12
2022-11-12T15:23:54.275Z,81.05
2022-11-12T15:26:42.227Z,81.12
2022-11-12T15:29:31.974Z,81.21
2022-11-12T15:32:35.595Z,81.16
2022-11-12T15:35:35.344Z,81.43
2022-11-12T15:38:27.122Z,81.36
2022-11-12T15:41:26.098Z,81.50
2022-11-12T15:44:13.445Z,81.22
2022-11-12T15:47:00.166Z,81.39
2022-11-12T15:49:52.832Z,81.39
2022-11-12T15:52:39.319Z,81.29
2022-11-12T15:55:25.325Z,81.30
2022-11-12T15:58:18.216Z,81.09
2022-11-12T16:01:04.397Z,81.09
2022-11-12T16:03:50.465Z,81.11
2022-11-12T16:06:36.569Z,81.18
2022-11-12T16:09:22.364Z,81.49
2022-11-12T16:12:11.694Z,81.48
2022-11-12T16:14:59.483Z,81.84
2022-11-12T16:17:46.109Z,81.33
2022-11-12T16:20:34.603Z,81.25
2022-11-12T16:23:20.483Z,81.29
2022-11-12T16:26:09.839Z,81.15
2022-11-12T16:28:55.744Z,81.30
2022-11-12T16:31:44.397Z,80.99
2022-11-12T16:34:30.288Z,80.74
2022-11-12T16:37:16.599Z,80.86
2022-11-12T16:40:02.535Z,80.91
2022-11-12T16:42:48.269Z,80.83
2022-11-12T16:45:40.147Z,80.81
2022-11-12T16:48:26.519Z,80.84
2022-11-12T16:51:18.772Z,80.89
2022-11-12T16:54:04.871Z,80.71
2022-11-12T16:56:50.906Z,80.67
2022-11-12T16:59:37.671Z,80.68
2022-11-12T17:02:24.103Z,80.62
2022-11-12T17:05:15.262Z,80.55
2022-11-12T17:08:00.917Z,80.66
2022-11-12T17:10:46.767Z,80.64
2022-11-12T17:13:32.598Z,80.78
2022-11-12T17:16:18.390Z,80.61
2022-11-12T17:19:05.602Z,80.52
2022-11-12T17:21:51.391Z,80.30
2022-11-12T17:24:36.928Z,80.44
2022-11-12T17:27:22.641Z,80.22
2022-11-12T17:30:11.379Z,80.31
2022-11-12T17:32:56.922Z,80.47
2022-11-12T17:35:42.409Z,80.46
2022-11-12T17:38:28.227Z,80.45
2022-11-12T17:41:14.036Z,80.67
2022-11-12T17:44:01.133Z,80.70
2022-11-12T17:46:47.256Z,80.53
2022-11-12T17:49:32.778Z,80.46
2022-11-12T17:52:18.730Z,80.43
2022-11-12T17:55:04.839Z,80.60
2022-11-12T17:57:51.396Z,80.70
2022-11-12T18:00:38.547Z,80.77
2022-11-12T18:03:24.678Z,80.66
2022-11-12T18:06:13.605Z,80.71
2022-11-12T18:09:01.312Z,80.64
2022-11-12T18:11:49.145Z,80.81
2022-11-12T18:14:35.270Z,80.77
2022-11-12T18:17:20.743Z,80.90
2022-11-12T18:20:07.736Z,80.91
2022-11-12T18:22:53.306Z,81.00
2022-11-12T18:25:39.767Z,81.15
2022-11-12T18:28:25.508Z,81.10
2022-11-12T18:31:14.256Z,81.19
2022-11-12T18:33:59.998Z,81.30
2022-11-12T18:36:46.284Z,81.41
2022-11-12T18:39:32.478Z,81.46
2022-11-12T18:42:18.532Z,81.40
2022-11-12T18:45:09.778Z,81.45
2022-11-12T18:47:55.860Z,81.53
2022-11-12T18:50:41.765Z,81.69
2022-11-12T18:53:27.705Z,81.88
2022-11-12T18:56:14.959Z,82.16
2022-11-12T18:59:00.967Z,82.18
2022-11-12T19:01:46.967Z,82.21
2022-11-12T19:04:33.191Z,82.40
2022-11-12T19:07:19.164Z,82.47
2022-11-12T19:10:14.615Z,82.53
2022-11-12T19:13:04.059Z,82.65
2022-11-12T19:15:49.752Z,82.75
2022-11-12T19:18:35.740Z,82.78
2022-11-12T19:21:23.859Z,82.88
2022-11-12T19:24:09.933Z,82.90
2022-11-12T19:26:55.895Z,82.95
2022-11-12T19:29:41.823Z,83.15
2022-11-12T19:32:27.710Z,83.15
2022-11-12T19:35:13.925Z,83.27
2022-11-12T19:37:59.862Z,83.43
2022-11-12T19:40:45.837Z,83.38
2022-11-12T19:43:31.650Z,83.46
2022-11-12T19:46:18.228Z,83.53
2022-11-12T19:49:03.910Z,83.55
2022-11-12T19:51:49.751Z,83.58
2022-11-12T19:54:35.194Z,83.87
2022-11-12T19:57:21.576Z,83.99
2022-11-12T20:00:10.909Z,84.19
2022-11-12T20:02:56.185Z,84.23
2022-11-12T20:05:42.644Z,84.28
2022-11-12T20:08:28.801Z,84.45
2022-11-12T20:11:16.275Z,84.58
2022-11-12T20:14:02.572Z,84.55
2022-11-12T20:16:49.517Z,84.50
2022-11-12T20:19:35.099Z,84.75
2022-11-12T20:22:21.137Z,84.84
2022-11-12T20:25:07.946Z,84.95
2022-11-12T20:27:53.349Z,85.02
2022-11-12T20:30:39.258Z,85.04
2022-11-12T20:33:25.476Z,85.21
2022-11-12T20:36:13.612Z,85.18
2022-11-12T20:39:00.330Z,85.26
2022-11-12T20:41:45.846Z,85.26
2022-11-12T20:44:31.712Z,85.28
2022-11-12T20:47:17.524Z,85.37
2022-11-12T20:50:03.383Z,85.39
2022-11-12T20:52:49.385Z,85.53
2022-11-12T20:55:35.032Z,85.47
2022-11-12T20:58:20.798Z,85.53
2022-11-12T21:01:08.238Z,85.64
2022-11-12T21:03:53.910Z,85.69
2022-11-12T21:06:39.624Z,85.76
2022-11-12T21:09:27.058Z,85.72
2022-11-12T21:12:12.916Z,85.76
2022-11-12T21:14:58.867Z,85.98
2022-11-12T21:17:44.971Z,86.06
2022-11-12T21:20:30.682Z,86.18
2022-11-12T21:23:16.260Z,86.36
2022-11-12T21:26:07.297Z,86.24
2022-11-12T21:28:54.388Z,86.40
2022-11-12T21:31:38.660Z,86.52
2022-11-12T21:34:24.272Z,86.65
2022-11-12T21:37:10.325Z,86.73
2022-11-12T21:39:56.601Z,86.69
2022-11-12T21:42:44.365Z,86.84
2022-11-12T21:45:30.155Z,86.87
2022-11-12T21:48:15.634Z,87.01
2022-11-12T21:51:07.478Z,87.26
2022-11-12T21:53:56.246Z,87.58
2022-11-12T21:56:42.239Z,87.51
2022-11-12T21:59:28.586Z,87.35
2022-11-12T22:02:15.598Z,87.34
2022-11-12T22:05:01.339Z,87.30
2022-11-12T22:07:47.220Z,87.27
2022-11-12T22:10:32.942Z,87.44
2022-11-12T22:13:27.016Z,87.53
2022-11-12T22:16:15.710Z,87.81
2022-11-12T22:19:02.281Z,87.78
2022-11-12T22:21:47.902Z,87.99
2022-11-12T22:24:33.515Z,87.98
2022-11-12T22:27:20.050Z,87.89
2022-11-12T22:30:06.701Z,87.91
2022-11-12T22:32:52.179Z,88.01
2022-11-12T22:35:38.029Z,88.09
2022-11-12T22:38:23.893Z,88.03
2022-11-12T22:41:11.264Z,88.02
2022-11-12T22:43:59.174Z,88.11
2022-11-12T22:46:43.256Z,88.05
2022-11-12T22:49:29.089Z,88.05
2022-11-12T22:52:14.629Z,88.13
2022-11-12T22:55:00.439Z,88.22
2022-11-12T22:57:46.266Z,88.01
2022-11-12T23:00:33.497Z,88.17
2022-11-12T23:03:19.442Z,88.29
2022-11-12T23:06:07.366Z,88.40
2022-11-12T23:08:53.832Z,88.36
2022-11-12T23:11:40.214Z,88.42
2022-11-12T23:14:26.323Z,88.64
2022-11-12T23:17:12.356Z,88.61
2022-11-12T23:19:57.999Z,88.47
2022-11-12T23:22:43.577Z,88.59
2022-11-12T23:25:29.658Z,88.71
2022-11-12T23:28:15.273Z,88.69
2022-11-12T23:31:01.202Z,88.84
2022-11-12T23:33:51.345Z,88.80
2022-11-12T23:36:37.101Z,88.68
2022-11-12T23:39:22.583Z,88.60
2022-11-12T23:42:08.475Z,88.68
2022-11-12T23:44:55.189Z,88.76
2022-11-12T23:47:41.096Z,88.86
2022-11-12T23:50:27.161Z,88.89
